sensor_id;sensor_type;location;lat;lon;timestamp;P1;durP1;ratioP1;P2;durP2;ratioP2
25687;SDS011;17407;51.120;3.702;2022-10-31T06:11:48;13.15;;;7.93;;
25687;SDS011;17407;51.120;3.702;2022-10-31T06:14:14;14.18;;;9.20;;
25687;SDS011;17407;51.120;3.702;2022-10-31T06:16:40;15.02;;;9.63;;
25687;SDS011;17407;51.120;3.702;2022-10-31T06:19:05;17.02;;;9.85;;
25687;SDS011;17407;51.120;3.702;2022-10-31T06:21:31;17.40;;;10.65;;
25687;SDS011;17407;51.120;3.702;2022-10-31T06:23:56;15.32;;;10.23;;
25687;SDS011;17407;51.120;3.702;2022-10-31T06:26:42;16.65;;;10.50;;
25687;SDS011;17407;51.120;3.702;2022-10-31T06:29:27;15.70;;;10.45;;
25687;SDS011;17407;51.120;3.702;2022-10-31T06:32:13;16.13;;;10.05;;
25687;SDS011;17407;51.120;3.702;2022-10-31T06:34:59;22.70;;;10.82;;
25687;SDS011;17407;51.120;3.702;2022-10-31T06:37:51;17.15;;;11.27;;
25687;SDS011;17407;51.120;3.702;2022-10-31T06:40:38;23.70;;;11.93;;
25687;SDS011;17407;51.120;3.702;2022-10-31T06:43:23;24.02;;;13.27;;
25687;SDS011;17407;51.120;3.702;2022-10-31T06:46:09;24.52;;;11.38;;
25687;SDS011;17407;51.120;3.702;2022-10-31T06:48:54;21.05;;;10.50;;
25687;SDS011;17407;51.120;3.702;2022-10-31T06:51:40;17.40;;;10.77;;
25687;SDS011;17407;51.120;3.702;2022-10-31T06:54:25;18.75;;;11.73;;
25687;SDS011;17407;51.120;3.702;2022-10-31T06:57:11;19.85;;;12.10;;
25687;SDS011;17407;51.120;3.702;2022-10-31T06:59:56;26.20;;;11.73;;
25687;SDS011;17407;51.120;3.702;2022-10-31T09:52:29;23.05;;;14.82;;
25687;SDS011;17407;51.120;3.702;2022-10-31T09:55:05;22.60;;;15.27;;
25687;SDS011;17407;51.120;3.702;2022-10-31T09:57:40;23.30;;;14.30;;
25687;SDS011;17407;51.120;3.702;2022-10-31T10:00:07;22.35;;;13.73;;
25687;SDS011;17407;51.120;3.702;2022-10-31T10:02:44;23.38;;;14.15;;
25687;SDS011;17407;51.120;3.702;2022-10-31T10:05:20;16.85;;;12.63;;
25687;SDS011;17407;51.120;3.702;2022-10-31T10:08:00;28.38;;;15.40;;
25687;SDS011;17407;51.120;3.702;2022-10-31T10:19:02;22.52;;;13.02;;
25687;SDS011;17407;51.120;3.702;2022-10-31T10:27:39;20.65;;;14.00;;
25687;SDS011;17407;51.120;3.702;2022-10-31T10:30:17;24.77;;;13.70;;
25687;SDS011;17407;51.120;3.702;2022-10-31T10:32:47;22.83;;;14.55;;
25687;SDS011;17407;51.120;3.702;2022-10-31T10:38:00;18.00;;;11.98;;
25687;SDS011;17407;51.120;3.702;2022-10-31T11:01:41;16.50;;;10.65;;
25687;SDS011;17407;51.120;3.702;2022-10-31T11:05:08;16.63;;;10.15;;
25687;SDS011;17407;51.120;3.702;2022-10-31T11:08:24;22.55;;;11.30;;
25687;SDS011;17407;51.120;3.702;2022-10-31T11:11:33;21.38;;;11.30;;
25687;SDS011;17407;51.120;3.702;2022-10-31T11:14:44;17.45;;;11.80;;
25687;SDS011;17407;51.120;3.702;2022-10-31T11:17:54;18.17;;;12.35;;
25687;SDS011;17407;51.120;3.702;2022-10-31T11:21:04;21.52;;;12.80;;
25687;SDS011;17407;51.120;3.702;2022-10-31T11:24:15;18.23;;;12.63;;
25687;SDS011;17407;51.120;3.702;2022-10-31T11:27:25;17.08;;;12.13;;
25687;SDS011;17407;51.120;3.702;2022-10-31T11:30:36;23.10;;;13.32;;
25687;SDS011;17407;51.120;3.702;2022-10-31T11:33:59;17.20;;;11.35;;
25687;SDS011;17407;51.120;3.702;2022-10-31T11:37:16;18.30;;;12.40;;
25687;SDS011;17407;51.120;3.702;2022-10-31T11:40:27;19.42;;;12.18;;
25687;SDS011;17407;51.120;3.702;2022-10-31T11:43:37;23.10;;;12.93;;
25687;SDS011;17407;51.120;3.702;2022-10-31T11:46:48;19.17;;;12.55;;
25687;SDS011;17407;51.120;3.702;2022-10-31T11:50:01;19.40;;;13.75;;
25687;SDS011;17407;51.120;3.702;2022-10-31T11:53:15;21.02;;;12.93;;
25687;SDS011;17407;51.120;3.702;2022-10-31T11:56:25;18.95;;;12.25;;
25687;SDS011;17407;51.120;3.702;2022-10-31T11:59:35;19.33;;;12.63;;
25687;SDS011;17407;51.120;3.702;2022-10-31T12:02:48;17.08;;;12.40;;
25687;SDS011;17407;51.120;3.702;2022-10-31T12:06:14;16.65;;;11.95;;
25687;SDS011;17407;51.120;3.702;2022-10-31T12:09:26;20.25;;;11.85;;
25687;SDS011;17407;51.120;3.702;2022-10-31T12:15:50;18.83;;;12.18;;
25687;SDS011;17407;51.120;3.702;2022-10-31T12:19:46;18.25;;;11.43;;
25687;SDS011;17407;51.120;3.702;2022-10-31T12:26:18;19.25;;;12.20;;
25687;SDS011;17407;51.120;3.702;2022-10-31T12:32:58;21.42;;;12.13;;
25687;SDS011;17407;51.120;3.702;2022-10-31T12:39:24;18.80;;;11.60;;
25687;SDS011;17407;51.120;3.702;2022-10-31T13:31:57;18.85;;;12.05;;
25687;SDS011;17407;51.120;3.702;2022-10-31T13:35:08;20.58;;;11.80;;
25687;SDS011;17407;51.120;3.702;2022-10-31T13:38:22;20.38;;;12.52;;
25687;SDS011;17407;51.120;3.702;2022-10-31T13:44:43;23.02;;;13.18;;
25687;SDS011;17407;51.120;3.702;2022-10-31T13:51:09;14.93;;;10.25;;
25687;SDS011;17407;51.120;3.702;2022-10-31T13:57:47;17.05;;;11.05;;
25687;SDS011;17407;51.120;3.702;2022-10-31T14:04:07;20.77;;;11.75;;
25687;SDS011;17407;51.120;3.702;2022-10-31T14:07:17;15.95;;;9.85;;
25687;SDS011;17407;51.120;3.702;2022-10-31T14:13:44;20.27;;;9.98;;
25687;SDS011;17407;51.120;3.702;2022-10-31T14:16:55;18.42;;;11.32;;
25687;SDS011;17407;51.120;3.702;2022-10-31T14:30:16;22.50;;;13.38;;
25687;SDS011;17407;51.120;3.702;2022-10-31T14:33:28;20.00;;;12.95;;
25687;SDS011;17407;51.120;3.702;2022-10-31T14:40:04;18.90;;;12.43;;
25687;SDS011;17407;51.120;3.702;2022-10-31T14:43:31;22.30;;;13.13;;
25687;SDS011;17407;51.120;3.702;2022-10-31T14:50:10;27.10;;;14.75;;
25687;SDS011;17407;51.120;3.702;2022-10-31T14:53:27;18.45;;;13.23;;
25687;SDS011;17407;51.120;3.702;2022-10-31T14:56:40;27.40;;;14.60;;
25687;SDS011;17407;51.120;3.702;2022-10-31T14:59:54;24.17;;;14.10;;
25687;SDS011;17407;51.120;3.702;2022-10-31T15:06:16;23.13;;;15.15;;
25687;SDS011;17407;51.120;3.702;2022-10-31T15:09:28;26.20;;;15.93;;
25687;SDS011;17407;51.120;3.702;2022-10-31T15:12:38;25.88;;;14.40;;
25687;SDS011;17407;51.120;3.702;2022-10-31T15:15:52;25.77;;;14.85;;
25687;SDS011;17407;51.120;3.702;2022-10-31T15:19:03;24.03;;;14.30;;
25687;SDS011;17407;51.120;3.702;2022-10-31T15:22:14;23.92;;;14.32;;
25687;SDS011;17407;51.120;3.702;2022-10-31T15:25:24;25.05;;;15.23;;
25687;SDS011;17407;51.120;3.702;2022-10-31T15:39:11;29.30;;;16.38;;
25687;SDS011;17407;51.120;3.702;2022-10-31T15:45:30;28.30;;;15.50;;
25687;SDS011;17407;51.120;3.702;2022-10-31T15:48:43;29.60;;;16.10;;
25687;SDS011;17407;51.120;3.702;2022-10-31T15:51:53;24.10;;;15.70;;
25687;SDS011;17407;51.120;3.702;2022-10-31T15:55:14;23.42;;;14.70;;
25687;SDS011;17407;51.120;3.702;2022-10-31T15:58:27;25.38;;;16.40;;
25687;SDS011;17407;51.120;3.702;2022-10-31T16:01:37;28.48;;;15.93;;
25687;SDS011;17407;51.120;3.702;2022-10-31T16:05:01;28.58;;;15.35;;
25687;SDS011;17407;51.120;3.702;2022-10-31T16:11:38;29.67;;;15.13;;
25687;SDS011;17407;51.120;3.702;2022-10-31T16:14:49;24.58;;;14.90;;
25687;SDS011;17407;51.120;3.702;2022-10-31T16:17:59;18.65;;;14.45;;
25687;SDS011;17407;51.120;3.702;2022-10-31T16:21:08;25.38;;;14.85;;
25687;SDS011;17407;51.120;3.702;2022-10-31T16:27:30;23.58;;;13.77;;
25687;SDS011;17407;51.120;3.702;2022-10-31T16:30:41;26.38;;;13.70;;
25687;SDS011;17407;51.120;3.702;2022-10-31T16:33:51;24.60;;;14.52;;
25687;SDS011;17407;51.120;3.702;2022-10-31T16:44:22;22.83;;;12.93;;
25687;SDS011;17407;51.120;3.702;2022-10-31T16:47:31;23.88;;;12.48;;
25687;SDS011;17407;51.120;3.702;2022-10-31T16:50:42;23.75;;;12.52;;
25687;SDS011;17407;51.120;3.702;2022-10-31T16:53:52;24.73;;;12.18;;
25687;SDS011;17407;51.120;3.702;2022-10-31T16:57:03;19.77;;;12.13;;
25687;SDS011;17407;51.120;3.702;2022-10-31T17:00:12;18.80;;;11.40;;
25687;SDS011;17407;51.120;3.702;2022-10-31T17:03:22;19.95;;;12.13;;
25687;SDS011;17407;51.120;3.702;2022-10-31T18:25:20;23.88;;;11.85;;
25687;SDS011;17407;51.120;3.702;2022-10-31T18:28:30;23.17;;;11.60;;
25687;SDS011;17407;51.120;3.702;2022-10-31T18:31:40;16.02;;;9.77;;
25687;SDS011;17407;51.120;3.702;2022-10-31T18:34:49;23.38;;;12.02;;
25687;SDS011;17407;51.120;3.702;2022-10-31T18:37:58;17.63;;;9.93;;
25687;SDS011;17407;51.120;3.702;2022-10-31T18:41:08;17.60;;;9.63;;
25687;SDS011;17407;51.120;3.702;2022-10-31T18:44:18;18.85;;;10.52;;
25687;SDS011;17407;51.120;3.702;2022-10-31T18:47:28;18.67;;;10.45;;
25687;SDS011;17407;51.120;3.702;2022-10-31T18:50:40;23.33;;;12.38;;
25687;SDS011;17407;51.120;3.702;2022-10-31T18:53:50;19.73;;;10.38;;
25687;SDS011;17407;51.120;3.702;2022-10-31T18:57:01;25.80;;;10.20;;
25687;SDS011;17407;51.120;3.702;2022-10-31T19:00:11;20.45;;;9.48;;
25687;SDS011;17407;51.120;3.702;2022-10-31T19:33:46;19.85;;;9.20;;
25687;SDS011;17407;51.120;3.702;2022-10-31T19:36:13;20.85;;;9.75;;
25687;SDS011;17407;51.120;3.702;2022-10-31T19:38:41;20.33;;;9.23;;
25687;SDS011;17407;51.120;3.702;2022-10-31T19:41:12;20.40;;;9.50;;
25687;SDS011;17407;51.120;3.702;2022-10-31T19:43:40;18.13;;;8.80;;
25687;SDS011;17407;51.120;3.702;2022-10-31T19:46:06;22.67;;;9.35;;
25687;SDS011;17407;51.120;3.702;2022-10-31T19:48:36;19.35;;;8.35;;
25687;SDS011;17407;51.120;3.702;2022-10-31T19:51:04;19.95;;;9.57;;
25687;SDS011;17407;51.120;3.702;2022-10-31T19:53:32;17.23;;;8.23;;
25687;SDS011;17407;51.120;3.702;2022-10-31T19:55:58;12.23;;;8.07;;
25687;SDS011;17407;51.120;3.702;2022-10-31T19:58:24;17.27;;;8.45;;
25687;SDS011;17407;51.120;3.702;2022-10-31T20:00:50;17.80;;;8.45;;
25687;SDS011;17407;51.120;3.702;2022-10-31T20:03:48;18.48;;;8.15;;
25687;SDS011;17407;51.120;3.702;2022-10-31T20:08:44;20.65;;;9.20;;
25687;SDS011;17407;51.120;3.702;2022-10-31T20:11:10;19.50;;;8.10;;
25687;SDS011;17407;51.120;3.702;2022-10-31T20:13:36;16.08;;;8.07;;
25687;SDS011;17407;51.120;3.702;2022-10-31T20:16:03;16.65;;;8.68;;
25687;SDS011;17407;51.120;3.702;2022-10-31T20:18:31;15.95;;;8.43;;
25687;SDS011;17407;51.120;3.702;2022-10-31T20:21:18;21.70;;;8.43;;
25687;SDS011;17407;51.120;3.702;2022-10-31T20:24:06;18.55;;;8.65;;
25687;SDS011;17407;51.120;3.702;2022-10-31T20:26:53;19.95;;;8.35;;
25687;SDS011;17407;51.120;3.702;2022-10-31T20:29:38;20.67;;;10.00;;
25687;SDS011;17407;51.120;3.702;2022-10-31T20:32:24;26.15;;;10.95;;
25687;SDS011;17407;51.120;3.702;2022-10-31T20:35:10;26.10;;;12.35;;
25687;SDS011;17407;51.120;3.702;2022-10-31T20:37:55;20.58;;;9.00;;
25687;SDS011;17407;51.120;3.702;2022-10-31T20:40:41;14.18;;;7.68;;
25687;SDS011;17407;51.120;3.702;2022-10-31T20:43:27;19.95;;;8.18;;
25687;SDS011;17407;51.120;3.702;2022-10-31T20:46:13;12.95;;;7.53;;
25687;SDS011;17407;51.120;3.702;2022-10-31T20:49:09;19.75;;;8.20;;
25687;SDS011;17407;51.120;3.702;2022-10-31T20:51:55;11.85;;;7.13;;
25687;SDS011;17407;51.120;3.702;2022-10-31T20:54:41;13.48;;;7.55;;
25687;SDS011;17407;51.120;3.702;2022-10-31T20:57:27;17.38;;;8.10;;
